Time;durP1;ratioP1;P1;durP2;ratioP2;P2;SDS_P1;SDS_P2;PMS_P1;PMS_P2;Temp;Humidity;BMP_temperature;BMP_pressure;BME280_temperature;BME280_humidity;BME280_pressure;Samples;Min_cycle;Max_cycle;Signal;HPM_P1;HPM_P2
2021/07/26 00:01:17;;;;;;;8.32;6.45;;;19.40;91.40;;;19.37;73.32;94599.75;5011616;28;20225;-82
2021/07/26 00:03:45;;;;;;;7.53;6.50;;;19.40;91.40;;;19.27;73.01;94581.09;4995227;28;20640;-82
2021/07/26 00:06:12;;;;;;;7.80;6.65;;;19.40;91.40;;;19.35;73.06;94591.25;5017937;28;20258;-82
2021/07/26 00:08:39;;;;;;;8.07;6.43;;;19.40;91.40;;;19.33;72.72;94591.53;5014764;28;20709;-83
2021/07/26 00:11:09;;;;;;;7.35;5.82;;;19.40;91.40;;;19.31;72.83;94584.81;4982791;28;20233;-82
2021/07/26 00:13:37;;;;;;;7.75;6.47;;;19.30;91.30;;;19.29;73.12;94581.63;5011626;28;20654;-82
2021/07/26 00:16:06;;;;;;;8.02;6.00;;;19.30;91.30;;;19.24;72.74;94582.41;5024529;28;20308;-81
2021/07/26 00:18:34;;;;;;;8.65;6.00;;;19.20;91.20;;;19.20;72.51;94576.78;5031004;28;20199;-82
2021/07/26 00:21:01;;;;;;;9.48;6.90;;;19.30;91.30;;;19.15;73.09;94573.28;5030970;28;20224;-81
2021/07/26 00:23:29;;;;;;;10.73;6.25;;;19.20;91.20;;;19.11;72.84;94570.31;5014335;28;20242;-82
2021/07/26 00:25:56;;;;;;;7.72;5.65;;;19.20;91.20;;;19.07;72.59;94573.75;5018912;28;20765;-81
2021/07/26 00:28:23;;;;;;;6.85;6.25;;;19.10;91.20;;;18.95;72.76;94556.09;4994654;28;20201;-83
2021/07/26 00:30:50;;;;;;;7.22;5.90;;;19.00;91.20;;;18.93;72.38;94557.41;4994801;28;20212;-82
2021/07/26 00:34:08;;;;;;;7.65;6.38;;;19.00;91.20;;;18.92;72.26;94561.94;5011074;28;20637;-81
2021/07/26 00:36:38;;;;;;;9.38;6.32;;;19.00;91.30;;;18.88;72.74;94566.13;5007956;28;20200;-82
2021/07/26 00:39:07;;;;;;;7.90;5.97;;;19.00;91.20;;;18.84;72.96;94567.69;5011258;28;20745;-82
2021/07/26 00:41:36;;;;;;;9.00;6.15;;;19.00;91.20;;;18.79;72.97;94557.00;5025823;28;20197;-82
2021/07/26 00:44:06;;;;;;;8.90;6.75;;;18.90;91.30;;;18.81;73.23;94561.03;4996298;28;20654;-81
2021/07/26 00:46:35;;;;;;;7.18;6.32;;;18.90;91.30;;;18.82;73.71;94562.63;4988164;28;20221;-82
2021/07/26 00:49:06;;;;;;;7.95;6.78;;;18.90;91.40;;;18.82;73.33;94567.94;4995278;28;20197;-82
2021/07/26 00:51:36;;;;;;;7.57;6.65;;;18.90;91.40;;;18.82;73.70;94573.25;5015426;28;20221;-82
2021/07/26 00:54:04;;;;;;;10.75;6.40;;;18.90;91.50;;;18.82;73.50;94575.91;5027271;28;20200;-82
2021/07/26 00:56:33;;;;;;;8.85;5.80;;;18.90;91.50;;;18.81;73.53;94576.16;5012660;28;20200;-81
2021/07/26 00:59:00;;;;;;;7.28;5.88;;;18.80;91.50;;;18.79;73.50;94567.66;5018124;28;20749;-82
2021/07/26 01:01:28;;;;;;;8.05;5.70;;;18.80;91.50;;;18.79;73.30;94554.34;5016008;28;20233;-83
2021/07/26 01:03:55;;;;;;;7.93;5.75;;;18.80;91.50;;;18.80;73.15;94567.38;5014848;28;20287;-82
2021/07/26 01:06:23;;;;;;;7.35;6.07;;;18.80;91.50;;;18.79;73.40;94562.31;5033100;28;20220;-81
2021/07/26 01:08:51;;;;;;;7.65;6.30;;;18.80;91.50;;;18.71;73.30;94559.06;5021350;28;20286;-82
2021/07/26 01:11:19;;;;;;;13.68;6.70;;;18.80;91.50;;;18.75;73.04;94567.34;5014386;28;20221;-82
2021/07/26 01:13:47;;;;;;;7.38;6.15;;;18.70;91.40;;;18.68;73.03;94556.13;4998180;28;20204;-82
2021/07/26 01:16:15;;;;;;;9.35;6.50;;;18.70;91.30;;;18.67;73.23;94565.13;5017140;28;20295;-82
2021/07/26 01:18:43;;;;;;;8.57;6.95;;;18.70;91.30;;;18.58;72.98;94562.13;5014188;28;20231;-82
2021/07/26 01:21:12;;;;;;;12.27;6.50;;;18.80;91.60;;;18.61;73.53;94571.44;5014249;28;20232;-82
2021/07/26 01:23:44;;;;;;;6.70;6.03;;;18.70;91.60;;;18.59;73.55;94579.69;5020877;28;20765;-82
2021/07/26 01:26:16;;;;;;;6.97;6.28;;;18.70;91.40;;;18.53;73.80;94562.88;5015192;28;20275;-82
2021/07/26 01:28:50;;;;;;;7.05;6.10;;;18.70;91.50;;;18.58;73.59;94571.94;5014138;28;20647;-82
2021/07/26 01:31:17;;;;;;;7.63;6.60;;;18.60;91.50;;;18.59;73.55;94570.88;5029962;28;20219;-82
2021/07/26 01:33:46;;;;;;;7.07;6.22;;;18.60;91.60;;;18.61;73.67;94572.25;5018135;28;20209;-82
2021/07/26 01:36:15;;;;;;;7.70;6.93;;;18.70;91.60;;;18.58;74.12;94563.97;5031354;28;20219;-82
2021/07/26 01:38:45;;;;;;;6.93;6.22;;;18.60;91.60;;;18.62;73.88;94583.69;5040762;28;20196;-82
2021/07/26 01:41:19;;;;;;;15.45;6.30;;;18.60;91.60;;;18.60;73.79;94583.91;5033670;28;20242;-81
2021/07/26 01:47:02;;;;;;;6.38;5.78;;;18.60;91.50;;;18.52;73.30;94579.84;5005792;28;20262;-82
2021/07/26 01:49:59;;;;;;;8.98;5.70;;;18.60;91.40;;;18.46;72.45;94594.13;5013774;28;20257;-81
2021/07/26 01:52:28;;;;;;;7.88;5.78;;;18.60;91.40;;;18.42;72.98;94592.22;5030049;28;20239;-82
2021/07/26 01:54:56;;;;;;;6.30;5.32;;;18.50;91.30;;;18.39;73.01;94596.19;5018040;28;20691;-82
2021/07/26 01:57:24;;;;;;;6.82;6.13;;;18.50;91.30;;;18.36;72.81;94599.34;4997382;28;20213;-82
2021/07/26 01:59:52;;;;;;;7.05;4.78;;;18.40;91.30;;;18.24;73.10;94589.66;4997117;28;20308;-81
2021/07/26 02:02:19;;;;;;;10.13;6.60;;;18.40;91.30;;;18.27;73.07;94596.31;5013700;28;20681;-82
2021/07/26 02:04:47;;;;;;;11.48;6.10;;;18.40;91.30;;;18.14;72.94;94576.25;5014757;28;20716;-82
2021/07/26 02:07:14;;;;;;;8.23;5.63;;;18.40;91.40;;;18.24;73.01;94592.28;5013218;28;20287;-82
2021/07/26 02:09:42;;;;;;;7.05;5.78;;;18.30;91.40;;;18.24;73.52;94604.78;5018877;28;20597;-82
2021/07/26 02:12:09;;;;;;;9.00;6.38;;;18.30;91.40;;;18.22;73.67;94602.38;4997211;28;20205;-82
2021/07/26 02:14:37;;;;;;;8.13;6.13;;;18.30;91.50;;;18.23;73.94;94596.00;5009118;28;20303;-82
2021/07/26 02:17:04;;;;;;;9.52;6.63;;;18.20;91.60;;;18.27;73.90;94593.66;5000783;28;20292;-82
2021/07/26 02:19:32;;;;;;;7.65;6.47;;;18.30;91.70;;;18.20;74.12;94577.94;5012111;28;20212;-81
2021/07/26 02:21:59;;;;;;;7.38;6.65;;;18.30;91.80;;;18.30;74.36;94581.75;4996964;28;20219;-82
2021/07/26 02:24:26;;;;;;;6.80;6.10;;;18.40;91.90;;;18.35;73.76;94587.13;4998064;28;20742;-81
2021/07/26 02:26:54;;;;;;;10.90;6.88;;;18.30;91.80;;;18.38;74.10;94589.25;5008513;28;20216;-81
2021/07/26 02:29:22;;;;;;;8.00;7.20;;;18.30;91.90;;;18.41;74.09;94586.13;4994225;28;20225;-81
2021/07/26 02:31:49;;;;;;;7.63;6.60;;;18.30;91.90;;;18.40;74.66;94587.16;5010977;28;20247;-83
2021/07/26 02:34:16;;;;;;;7.22;6.53;;;18.40;91.90;;;18.45;74.32;94587.22;5026960;28;20205;-81
2021/07/26 02:36:43;;;;;;;8.25;7.35;;;18.40;92.20;;;18.46;74.60;94586.16;5020620;28;20205;-81
2021/07/26 02:39:11;;;;;;;8.57;7.13;;;18.50;92.00;;;18.49;74.45;94580.38;5012828;28;20247;-82
2021/07/26 02:41:42;;;;;;;8.68;7.45;;;18.40;92.00;;;18.50;74.69;94581.97;5028556;28;20201;-82
2021/07/26 02:44:09;;;;;;;8.68;7.30;;;18.50;91.90;;;18.46;74.86;94574.75;5003536;28;20303;-82
2021/07/26 02:46:37;;;;;;;10.75;7.72;;;18.50;91.90;;;18.53;74.44;94589.44;5011220;28;20635;-81
2021/07/26 02:49:04;;;;;;;8.75;6.95;;;18.50;92.00;;;18.57;74.51;94595.06;5004404;28;20204;-82
2021/07/26 02:51:32;;;;;;;8.35;6.97;;;18.60;92.00;;;18.50;75.07;94589.91;4994747;28;20205;-81
2021/07/26 02:54:02;;;;;;;8.57;7.40;;;18.60;92.10;;;18.66;74.64;94608.69;4999412;28;20205;-81
2021/07/26 02:56:29;;;;;;;8.93;8.00;;;18.60;92.20;;;18.64;75.30;94585.03;5022864;28;20217;-80
2021/07/26 02:58:56;;;;;;;9.00;8.10;;;18.60;92.20;;;18.71;74.38;94595.44;5010111;28;20655;-81
2021/07/26 03:01:23;;;;;;;7.85;6.82;;;18.60;92.10;;;18.64;74.57;94593.00;5010684;28;20557;-81
2021/07/26 03:03:51;;;;;;;7.40;6.70;;;18.60;92.00;;;18.72;74.37;94605.03;5019623;28;20204;-82
2021/07/26 03:06:19;;;;;;;8.63;7.32;;;18.70;91.90;;;18.65;74.23;94599.94;5010099;28;20209;-81
2021/07/26 03:08:47;;;;;;;10.63;6.85;;;18.70;91.80;;;18.59;74.17;94602.75;5011984;28;20781;-82
2021/07/26 03:11:14;;;;;;;8.02;7.22;;;18.70;91.80;;;18.57;74.05;94605.69;5012877;28;20282;-81
2021/07/26 03:13:42;;;;;;;8.05;7.25;;;18.70;91.80;;;18.61;74.33;94619.25;5016464;28;20222;-82
2021/07/26 03:16:11;;;;;;;9.00;8.00;;;18.70;91.70;;;18.54;74.36;94620.25;5031859;28;20311;-82
2021/07/26 03:18:41;;;;;;;8.90;8.00;;;18.70;91.70;;;18.54;74.43;94620.25;5003492;28;20194;-82
2021/07/26 03:21:15;;;;;;;8.57;7.45;;;18.60;91.70;;;18.52;74.50;94613.59;4977404;28;20316;-82
2021/07/26 03:23:43;;;;;;;9.50;7.53;;;18.60;91.60;;;18.50;74.52;94624.44;5031155;28;20203;-82
2021/07/26 03:26:11;;;;;;;9.75;7.97;;;18.60;91.70;;;18.45;74.34;94621.75;5015549;28;20216;-82
2021/07/26 03:28:39;;;;;;;8.30;7.43;;;18.60;91.70;;;18.48;74.63;94626.56;5025733;28;20244;-83
2021/07/26 03:31:06;;;;;;;8.75;7.85;;;18.60;91.80;;;18.47;74.34;94632.09;5012409;28;20230;-82
2021/07/26 03:33:34;;;;;;;9.00;8.10;;;18.60;91.80;;;18.37;74.59;94624.81;5031629;28;20203;-82
2021/07/26 03:36:01;;;;;;;9.55;7.70;;;18.60;91.80;;;18.44;74.62;94633.41;5015237;28;20307;-82
2021/07/26 03:38:28;;;;;;;8.95;8.02;;;18.50;91.80;;;18.43;74.53;94628.34;5017214;28;20200;-83
2021/07/26 03:40:55;;;;;;;9.70;8.20;;;18.50;91.80;;;18.45;74.29;94628.91;5028133;28;20212;-82
2021/07/26 03:43:23;;;;;;;10.27;8.60;;;18.60;91.80;;;18.40;74.33;94616.38;5011442;28;20201;-82
2021/07/26 03:45:50;;;;;;;9.05;7.63;;;18.50;91.80;;;18.41;74.60;94620.66;5014310;28;20262;-83
2021/07/26 03:48:17;;;;;;;8.05;7.18;;;18.50;91.80;;;18.36;74.25;94616.06;5016725;28;20228;-83
2021/07/26 03:50:44;;;;;;;10.23;8.68;;;18.50;91.80;;;18.36;74.70;94621.38;5031285;28;20318;-81
2021/07/26 03:53:11;;;;;;;10.23;9.23;;;18.50;91.80;;;18.32;74.73;94612.31;5015079;28;20204;-82
2021/07/26 03:55:38;;;;;;;10.98;9.68;;;18.50;91.80;;;18.38;74.88;94616.63;5030436;28;20318;-81
2021/07/26 03:58:05;;;;;;;10.25;9.10;;;18.40;91.90;;;18.33;75.00;94599.84;5017268;28;20698;-82
2021/07/26 04:00:33;;;;;;;11.82;9.90;;;18.50;92.00;;;18.36;74.80;94597.47;5014876;28;20310;-82
2021/07/26 04:05:37;;;;;;;10.68;9.63;;;18.50;92.00;;;18.45;74.79;94603.16;5008284;28;20220;-82
2021/07/26 04:08:18;;;;;;;11.98;9.23;;;18.50;92.10;;;18.48;74.47;94600.00;4995791;28;20232;-82
2021/07/26 04:10:51;;;;;;;10.80;9.70;;;18.50;92.10;;;18.49;75.23;94601.63;4979893;28;20220;-82
2021/07/26 04:13:18;;;;;;;13.40;9.75;;;18.50;92.10;;;18.52;75.33;94611.72;4995945;28;20180;-82
2021/07/26 04:15:49;;;;;;;11.30;9.35;;;18.50;92.20;;;18.58;75.18;94609.94;5017251;28;20246;-82
2021/07/26 04:18:16;;;;;;;12.23;9.48;;;18.50;92.30;;;18.62;75.58;94611.03;5011319;28;20201;-83
2021/07/26 04:20:43;;;;;;;12.05;9.65;;;18.60;92.30;;;18.57;75.41;94589.75;4995033;28;20231;-83
2021/07/26 04:23:11;;;;;;;10.95;8.88;;;18.60;92.30;;;18.74;75.63;94608.25;5011244;28;20745;-81
2021/07/26 04:25:38;;;;;;;11.38;9.90;;;18.70;92.30;;;18.79;75.13;94610.16;5026526;28;20259;-81
2021/07/26 04:28:07;;;;;;;12.52;10.00;;;18.60;92.40;;;18.80;75.30;94603.78;5027049;28;20212;-82
2021/07/26 04:30:34;;;;;;;12.55;9.88;;;18.70;92.50;;;18.93;75.42;94615.88;5026785;28;20258;-82
2021/07/26 04:33:02;;;;;;;13.75;10.35;;;18.70;92.60;;;18.93;75.47;94614.03;5014528;28;20200;-81
2021/07/26 04:35:29;;;;;;;11.63;10.43;;;18.80;92.60;;;18.98;76.00;94616.75;5025426;28;20246;-82
2021/07/26 04:37:57;;;;;;;13.57;10.95;;;18.90;92.70;;;19.14;75.96;94622.19;5015863;28;20226;-84
2021/07/26 04:40:24;;;;;;;12.15;10.77;;;18.90;92.80;;;19.22;75.77;94618.28;5016930;28;20216;-81
2021/07/26 04:42:53;;;;;;;12.95;11.40;;;19.00;92.90;;;19.24;75.50;94613.47;4993113;28;20303;-83
2021/07/26 04:45:20;;;;;;;14.07;12.13;;;19.10;92.90;;;19.33;75.58;94625.28;5013460;28;20216;-84
2021/07/26 04:47:48;;;;;;;18.40;12.98;;;19.10;92.80;;;19.42;75.87;94626.41;4997168;28;20228;-84
2021/07/26 04:50:16;;;;;;;14.45;12.07;;;19.20;92.90;;;19.46;76.23;94632.81;4984364;28;20224;-83
2021/07/26 04:52:44;;;;;;;15.88;11.85;;;19.30;92.90;;;19.45;76.11;94623.22;5019873;28;20205;-84
2021/07/26 04:55:12;;;;;;;14.13;11.90;;;19.30;92.90;;;19.58;75.53;94629.16;4997706;28;20682;-83
2021/07/26 04:57:39;;;;;;;13.10;11.75;;;19.40;92.90;;;19.63;75.83;94635.34;5013564;28;20205;-85
2021/07/26 05:00:07;;;;;;;16.63;12.90;;;19.40;92.90;;;19.66;75.88;94628.69;5015523;28;20251;-84
2021/07/26 05:02:34;;;;;;;15.95;12.45;;;19.50;92.90;;;19.74;75.73;94644.19;4999110;28;20721;-81
2021/07/26 05:05:03;;;;;;;15.63;12.50;;;19.60;92.90;;;19.78;76.19;94644.50;5018510;28;20259;-83
2021/07/26 05:07:30;;;;;;;15.57;13.15;;;19.60;92.90;;;19.85;75.86;94639.78;5034630;28;20228;-83
2021/07/26 05:09:57;;;;;;;16.38;12.68;;;19.70;92.90;;;19.89;75.85;94640.84;5008996;28;20282;-83
2021/07/26 05:12:25;;;;;;;15.48;12.68;;;19.70;92.80;;;19.94;75.72;94640.09;5031619;28;20203;-84
2021/07/26 05:14:53;;;;;;;14.18;12.68;;;19.70;92.80;;;19.92;75.85;94632.38;4998496;28;20679;-84
2021/07/26 05:17:26;;;;;;;14.07;12.57;;;19.80;92.80;;;20.01;76.00;94643.31;4998618;28;20571;-84
2021/07/26 05:19:54;;;;;;;13.02;11.73;;;19.80;92.80;;;20.07;76.03;94641.50;5004976;28;20221;-84
2021/07/26 05:22:22;;;;;;;14.25;12.38;;;19.80;92.80;;;20.12;75.98;94647.63;5014617;28;20193;-83
2021/07/26 05:24:52;;;;;;;12.95;11.52;;;19.90;92.90;;;20.17;76.25;94643.41;5021051;28;20224;-84
2021/07/26 05:27:20;;;;;;;14.02;12.30;;;19.90;93.00;;;20.19;75.95;94650.09;5018164;28;20200;-83
2021/07/26 05:29:48;;;;;;;14.23;12.75;;;20.00;93.00;;;20.24;75.83;94649.31;5033948;28;20740;-83
2021/07/26 05:32:15;;;;;;;17.95;12.15;;;20.10;93.00;;;20.29;75.88;94650.13;4998011;28;20575;-85
2021/07/26 05:34:43;;;;;;;16.27;13.00;;;20.10;93.10;;;20.29;75.79;94636.81;5002754;28;20212;-83
2021/07/26 05:37:11;;;;;;;15.93;13.45;;;20.20;93.10;;;20.45;76.20;94652.84;5002958;28;20638;-83
2021/07/26 05:39:38;;;;;;;16.67;13.05;;;20.20;93.10;;;20.50;75.85;94646.75;5013933;28;20714;-82
2021/07/26 05:42:06;;;;;;;14.07;12.45;;;20.20;93.10;;;20.48;75.83;94639.81;5011782;28;20288;-83
2021/07/26 05:44:41;;;;;;;15.05;12.75;;;20.30;93.10;;;20.58;76.26;94639.06;5013631;28;20287;-83
2021/07/26 05:47:11;;;;;;;18.63;13.95;;;20.40;93.00;;;20.67;76.46;94641.22;5013690;28;20550;-84
2021/07/26 05:49:41;;;;;;;16.58;13.30;;;20.40;93.00;;;20.72;76.01;94638.59;5009607;28;20231;-84
2021/07/26 05:52:08;;;;;;;14.38;12.98;;;20.50;93.20;;;20.79;76.36;94642.59;5016509;28;20204;-84
2021/07/26 05:54:35;;;;;;;16.40;14.10;;;20.50;93.20;;;20.77;76.08;94625.28;5005702;28;20307;-83
2021/07/26 05:57:08;;;;;;;16.60;13.80;;;20.60;93.20;;;20.88;76.15;94636.75;4979789;28;20340;-83
2021/07/26 05:59:37;;;;;;;15.13;13.18;;;20.60;93.20;;;20.88;76.27;94628.75;5001304;28;20718;-82
2021/07/26 06:02:05;;;;;;;14.90;12.75;;;20.70;93.20;;;21.01;76.44;94640.78;4978518;28;20197;-82
2021/07/26 06:04:34;;;;;;;15.07;13.07;;;20.70;93.30;;;21.10;76.25;94652.53;5026448;28;20224;-82
2021/07/26 06:07:04;;;;;;;13.77;12.27;;;20.80;93.30;;;21.17;76.02;94644.28;5010417;28;20181;-83
2021/07/26 06:09:31;;;;;;;16.67;13.75;;;20.90;93.30;;;21.15;75.90;94631.19;5013966;28;20230;-83
2021/07/26 06:11:59;;;;;;;14.27;11.95;;;20.90;93.30;;;21.26;76.43;94640.81;5046844;28;20475;-82
2021/07/26 06:14:28;;;;;;;15.93;11.85;;;21.00;93.30;;;21.40;76.24;94634.97;5029982;28;20270;-82
2021/07/26 06:16:59;;;;;;;14.15;12.65;;;21.00;93.40;;;21.47;76.30;94643.50;5047828;28;20211;-82
2021/07/26 06:19:28;;;;;;;13.70;12.23;;;21.10;93.50;;;21.52;76.14;94643.50;5000538;28;20224;-81
2021/07/26 06:21:56;;;;;;;14.02;12.60;;;21.20;93.50;;;21.54;76.37;94644.00;5012669;28;20200;-83
2021/07/26 06:24:24;;;;;;;16.05;12.75;;;21.30;93.50;;;21.71;76.31;94659.78;4997226;28;20566;-82
2021/07/26 06:26:55;;;;;;;15.50;12.15;;;21.30;93.50;;;21.80;76.28;94661.91;5008519;28;20211;-83
2021/07/26 06:29:27;;;;;;;15.88;11.77;;;21.40;93.50;;;21.77;76.18;94643.78;5001653;28;20555;-82
2021/07/26 06:31:57;;;;;;;13.45;12.15;;;21.40;93.40;;;21.87;75.86;94651.75;5009341;28;20216;-82
2021/07/26 06:34:25;;;;;;;13.77;12.38;;;21.50;93.60;;;21.95;75.97;94651.22;5013182;28;20225;-81
2021/07/26 06:36:55;;;;;;;12.88;11.57;;;21.50;93.50;;;22.11;76.20;94656.53;5011320;28;20225;-79
2021/07/26 06:39:23;;;;;;;14.10;11.80;;;21.70;93.70;;;22.19;76.30;94658.63;5013542;28;20650;-79
2021/07/26 06:41:50;;;;;;;15.90;12.90;;;21.70;93.70;;;22.26;76.59;94659.16;5016275;28;20279;-81
2021/07/26 06:44:17;;;;;;;13.15;11.80;;;21.80;93.70;;;22.29;75.93;94655.13;5003042;28;20204;-80
2021/07/26 06:46:45;;;;;;;13.95;12.55;;;21.90;93.70;;;22.42;76.32;94659.13;5021635;28;20678;-80
2021/07/26 06:49:12;;;;;;;13.27;11.80;;;21.90;93.60;;;22.43;76.24;94655.41;5017994;28;20271;-80
2021/07/26 06:51:40;;;;;;;13.20;11.60;;;22.00;93.70;;;22.58;76.34;94665.22;5004207;28;20759;-80
2021/07/26 06:54:07;;;;;;;14.27;12.20;;;22.10;93.70;;;22.61;75.93;94667.34;5009263;28;20247;-80
2021/07/26 06:56:35;;;;;;;13.82;10.85;;;22.20;93.60;;;22.70;76.26;94679.06;4994282;28;20667;-81
2021/07/26 06:59:02;;;;;;;12.85;11.55;;;22.20;93.50;;;22.76;76.10;94680.63;4997830;28;20293;-80
2021/07/26 07:01:29;;;;;;;12.60;11.40;;;22.30;93.60;;;22.80;76.38;94676.34;4986295;28;20552;-80
2021/07/26 07:03:57;;;;;;;14.25;11.15;;;22.30;93.50;;;22.91;75.75;94687.00;5007945;28;20193;-80
2021/07/26 07:06:27;;;;;;;12.52;11.13;;;22.30;93.50;;;22.97;76.19;94675.19;5019827;28;20585;-79
2021/07/26 07:08:55;;;;;;;12.18;10.15;;;22.40;93.90;;;23.00;76.23;94677.31;5016287;28;20216;-80
2021/07/26 07:11:24;;;;;;;11.85;10.63;;;22.50;93.60;;;23.10;75.75;94698.66;5007494;28;20226;-80
2021/07/26 07:13:52;;;;;;;12.35;11.05;;;22.50;93.50;;;23.16;75.90;94696.75;5034077;28;20218;-80
2021/07/26 07:16:22;;;;;;;11.65;10.45;;;22.60;93.40;;;23.22;75.88;94694.88;5009637;28;20216;-80
2021/07/26 07:18:52;;;;;;;11.63;10.45;;;22.70;93.30;;;23.29;75.87;94693.50;5020442;28;20211;-80
2021/07/26 07:21:27;;;;;;;13.45;12.05;;;22.70;93.30;;;23.33;75.49;94699.88;4992434;28;20213;-80
2021/07/26 07:24:00;;;;;;;13.75;10.57;;;22.80;93.30;;;23.39;75.81;94695.31;5011329;28;20617;-80
2021/07/26 07:26:31;;;;;;;11.52;10.40;;;22.90;93.30;;;23.46;75.82;94690.44;4980055;28;20217;-81
2021/07/26 07:28:59;;;;;;;10.13;9.13;;;22.90;93.30;;;23.50;76.09;94690.69;5013462;28;20220;-79
2021/07/26 07:31:27;;;;;;;9.65;8.65;;;22.90;93.30;;;23.66;76.18;94699.38;5015360;28;20238;-80
2021/07/26 07:33:56;;;;;;;9.82;8.82;;;23.00;93.50;;;23.74;76.00;94692.63;5011934;28;20188;-81
2021/07/26 07:36:25;;;;;;;10.60;9.50;;;23.10;93.40;;;23.86;76.03;94700.31;5016064;28;20251;-81
2021/07/26 07:38:54;;;;;;;11.32;10.20;;;23.20;93.50;;;23.97;76.13;94699.16;5026786;28;20189;-80
2021/07/26 07:41:23;;;;;;;12.05;9.63;;;23.30;93.60;;;24.06;75.74;94705.50;5027656;28;20221;-80
2021/07/26 07:43:52;;;;;;;10.95;9.85;;;23.40;93.50;;;24.13;75.78;94700.63;4997671;28;20250;-81
2021/07/26 07:46:21;;;;;;;10.80;9.70;;;23.50;93.50;;;24.19;75.61;94701.34;5011364;28;20232;-81
2021/07/26 07:48:49;;;;;;;12.27;9.93;;;23.50;93.40;;;24.29;75.55;94701.25;5002887;28;20217;-81
2021/07/26 07:51:18;;;;;;;10.32;9.32;;;23.60;93.30;;;24.38;75.49;94693.41;5039805;28;20911;-81
2021/07/26 07:53:51;;;;;;;11.48;10.18;;;23.70;93.20;;;24.45;75.47;94695.75;5021097;28;20244;-81
2021/07/26 07:56:20;;;;;;;9.73;8.82;;;23.80;93.20;;;24.56;75.80;94697.22;5021098;28;20553;-81
2021/07/26 07:58:52;;;;;;;9.82;8.82;;;23.90;93.30;;;24.69;75.66;94705.69;5019983;28;20202;-81
2021/07/26 08:01:20;;;;;;;10.70;9.60;;;23.90;93.20;;;24.75;75.28;94708.00;5016062;28;20682;-82
2021/07/26 08:03:50;;;;;;;10.35;9.20;;;24.10;93.10;;;24.82;75.15;94707.69;5003050;28;20199;-81
2021/07/26 08:06:18;;;;;;;9.45;8.55;;;24.10;93.20;;;24.88;75.33;94705.75;4984351;28;20213;-81
2021/07/26 08:08:46;;;;;;;10.20;9.13;;;24.20;92.70;;;24.93;75.30;94706.44;5000122;28;20216;-81
2021/07/26 08:11:15;;;;;;;10.95;9.95;;;24.30;92.70;;;24.98;75.05;94697.53;4995382;28;20363;-81
2021/07/26 08:13:45;;;;;;;9.48;8.55;;;24.40;92.60;;;25.13;75.51;94699.22;4995722;28;20204;-80
2021/07/26 08:16:14;;;;;;;9.70;8.80;;;24.50;92.50;;;25.31;75.27;94697.63;5001107;28;20218;-81
2021/07/26 08:18:57;;;;;;;10.23;8.98;;;24.60;92.90;;;25.49;75.24;94697.97;5010823;28;20283;-81
2021/07/26 08:21:27;;;;;;;10.10;9.10;;;24.70;92.90;;;25.60;73.97;94695.88;5016834;28;20316;-81
2021/07/26 08:23:59;;;;;;;9.95;8.93;;;24.80;92.30;;;25.63;74.17;94689.94;5011032;28;20188;-82
2021/07/26 08:26:28;;;;;;;10.02;8.93;;;24.90;91.80;;;25.75;73.62;94692.19;5021014;28;20582;-81
2021/07/26 08:28:56;;;;;;;9.55;8.55;;;25.00;92.10;;;25.87;74.02;94700.56;5017903;28;20212;-81
2021/07/26 08:31:25;;;;;;;10.18;9.18;;;25.10;92.10;;;25.92;73.07;94694.31;4992612;28;20301;-82
2021/07/26 08:33:53;;;;;;;10.27;9.25;;;25.10;91.80;;;25.93;72.77;94694.03;5008081;28;20738;-82
2021/07/26 08:36:22;;;;;;;10.75;8.95;;;25.20;91.60;;;26.02;73.12;94702.19;5017749;28;20220;-79
2021/07/26 08:38:50;;;;;;;10.55;9.20;;;25.30;91.70;;;26.06;73.10;94689.75;5002553;28;20202;-82
2021/07/26 08:41:20;;;;;;;12.75;8.98;;;25.40;91.70;;;26.19;73.35;94690.91;5014156;28;20213;-82
2021/07/26 08:43:48;;;;;;;9.15;8.35;;;25.40;91.70;;;26.27;72.86;94686.72;5007731;28;20198;-82
2021/07/26 08:46:20;;;;;;;9.73;8.82;;;25.50;91.60;;;26.40;73.02;94695.94;5007331;28;20468;-82
2021/07/26 08:48:50;;;;;;;10.60;9.50;;;25.60;91.40;;;26.48;72.30;94700.63;5007296;28;20319;-81
2021/07/26 08:51:21;;;;;;;10.18;9.18;;;25.70;91.40;;;26.58;72.45;94705.00;5018701;28;20709;-82
2021/07/26 08:53:51;;;;;;;10.35;9.30;;;25.70;91.30;;;26.69;72.51;94711.78;5024020;28;20275;-81
2021/07/26 08:56:21;;;;;;;9.65;8.65;;;25.80;91.30;;;26.84;72.64;94708.81;5007547;28;20222;-82
2021/07/26 08:58:51;;;;;;;10.52;9.48;;;25.90;91.50;;;26.99;72.07;94707.69;5008524;28;20187;-82
2021/07/26 09:01:20;;;;;;;10.43;9.43;;;26.10;91.50;;;27.13;71.61;94713.03;5022361;28;20223;-81
2021/07/26 09:03:52;;;;;;;10.32;9.32;;;26.20;91.40;;;27.27;71.72;94720.28;5022749;28;20709;-81
2021/07/26 09:06:20;;;;;;;10.02;9.02;;;26.30;90.80;;;27.40;71.67;94711.38;4994246;28;20313;-82
2021/07/26 09:08:48;;;;;;;10.38;9.27;;;26.40;91.20;;;27.51;71.17;94720.06;5009440;28;20275;-82
2021/07/26 09:11:18;;;;;;;9.38;8.48;;;26.60;91.10;;;27.60;70.98;94706.66;5012076;28;20412;-82
2021/07/26 09:13:46;;;;;;;9.32;8.35;;;26.70;91.00;;;27.75;71.41;94703.59;4994062;28;20225;-82
2021/07/26 09:16:25;;;;;;;9.80;8.80;;;26.80;90.80;;;27.84;70.27;94703.66;5009113;28;20231;-82
2021/07/26 09:19:11;;;;;;;10.05;9.05;;;26.90;89.50;;;27.90;69.98;94699.72;5011622;28;20218;-83
2021/07/26 09:21:49;;;;;;;10.20;9.05;;;27.00;89.10;;;28.01;70.26;94700.28;5011732;28;20304;-82
2021/07/26 09:24:27;;;;;;;10.10;9.02;;;27.10;88.80;;;28.09;69.33;94704.19;5013842;28;20304;-81
2021/07/26 09:27:11;;;;;;;10.52;9.43;;;27.20;88.80;;;28.16;69.35;94698.34;4996932;28;20184;-82
2021/07/26 09:29:40;;;;;;;9.63;8.68;;;27.30;89.70;;;28.21;69.07;94706.28;5012154;28;20717;-82
2021/07/26 09:32:09;;;;;;;10.07;8.82;;;27.40;89.20;;;28.25;68.38;94713.44;5014265;28;20688;-81
2021/07/26 09:34:37;;;;;;;11.13;9.85;;;27.40;88.70;;;28.32;68.65;94709.50;5014047;28;20648;-82
2021/07/26 09:37:17;;;;;;;9.52;8.52;;;27.50;87.80;;;28.38;67.53;94702.88;5015202;28;20200;-82
2021/07/26 09:39:44;;;;;;;10.00;8.70;;;27.50;86.00;;;28.52;68.30;94700.88;5025453;28;20240;-83
2021/07/26 09:42:28;;;;;;;9.55;8.65;;;27.60;88.20;;;28.70;68.08;94699.06;5017152;28;20201;-81
2021/07/26 09:45:23;;;;;;;10.73;9.45;;;27.70;86.80;;;28.88;67.61;94693.72;5033994;28;20282;-82
2021/07/26 09:48:10;;;;;;;10.02;9.02;;;27.80;86.80;;;29.12;67.82;94698.69;5029381;28;20245;-82
2021/07/26 09:50:45;;;;;;;10.70;8.88;;;28.00;86.90;;;29.30;66.74;94694.13;5013623;28;20244;-83
2021/07/26 09:53:17;;;;;;;9.60;8.60;;;28.10;86.40;;;29.44;66.25;94695.91;5032987;28;20189;-82
2021/07/26 09:55:47;;;;;;;9.30;8.30;;;28.30;85.50;;;29.52;66.25;94695.88;5027623;28;20218;-83
2021/07/26 09:58:17;;;;;;;9.82;8.82;;;28.50;86.80;;;29.62;65.86;94689.38;4997673;28;20213;-82
2021/07/26 10:00:46;;;;;;;11.75;8.93;;;28.60;85.60;;;29.76;64.70;94689.22;5014345;28;20287;-82
2021/07/26 10:03:15;;;;;;;9.55;8.70;;;28.70;84.60;;;29.79;64.60;94693.19;5029446;28;20253;-83
2021/07/26 10:05:43;;;;;;;9.40;8.50;;;28.80;84.10;;;29.72;64.81;94696.34;5013277;28;20234;-83
2021/07/26 10:08:11;;;;;;;9.60;8.60;;;28.90;84.10;;;29.77;64.81;94695.41;5010647;28;20209;-82
2021/07/26 10:10:40;;;;;;;9.35;8.45;;;28.90;84.10;;;29.82;64.45;94689.81;5033416;28;20248;-82
2021/07/26 10:13:09;;;;;;;10.63;8.68;;;29.00;83.80;;;29.88;64.38;94685.84;5012519;28;20692;-82
2021/07/26 10:15:37;;;;;;;10.10;8.88;;;29.00;83.70;;;30.06;63.31;94693.97;5028595;28;20280;-83
2021/07/26 10:18:06;;;;;;;9.55;8.65;;;29.10;83.10;;;30.21;63.34;94681.81;5029936;28;20210;-82
2021/07/26 10:20:41;;;;;;;9.63;8.73;;;29.20;83.20;;;30.38;61.82;94684.47;5029673;28;20643;-83
2021/07/26 10:23:40;;;;;;;10.55;9.45;;;29.30;81.30;;;30.50;62.66;94683.81;5043325;28;20244;-82
2021/07/26 10:26:11;;;;;;;9.50;8.50;;;29.50;82.20;;;30.70;62.11;94676.09;5024070;28;20282;-83
2021/07/26 10:28:57;;;;;;;9.27;8.38;;;29.60;82.30;;;30.86;61.80;94674.41;5012616;28;20219;-83